createdAt,value
2019-05-01T00:02:15.754Z,7.30
2019-05-01T00:05:10.349Z,7.30
2019-05-01T00:07:40.139Z,7.20
2019-05-01T00:10:09.873Z,7.20
2019-05-01T00:12:39.665Z,7.20
2019-05-01T00:15:09.887Z,7.10
2019-05-01T00:17:39.523Z,7.10
2019-05-01T00:20:09.189Z,7.10
2019-05-01T00:22:38.741Z,7.00
2019-05-01T00:25:08.494Z,7.00
2019-05-01T00:27:38.058Z,7.00
2019-05-01T00:30:09.991Z,7.00
2019-05-01T00:32:39.543Z,7.00
2019-05-01T00:35:09.107Z,6.90
2019-05-01T00:37:38.677Z,6.90
2019-05-01T00:40:08.455Z,6.90
2019-05-01T00:42:37.990Z,6.80
2019-05-01T00:45:07.685Z,6.80
2019-05-01T00:47:37.245Z,6.90
2019-05-01T00:50:06.865Z,6.90
2019-05-01T00:52:36.436Z,6.80
2019-05-01T00:55:24.075Z,6.80
2019-05-01T00:58:03.411Z,6.80
2019-05-01T01:00:43.108Z,6.70
2019-05-01T01:03:11.977Z,6.70
2019-05-01T01:05:41.535Z,6.70
2019-05-01T01:08:11.083Z,6.60
2019-05-01T01:10:40.641Z,6.60
2019-05-01T01:13:10.214Z,6.60
2019-05-01T01:15:39.704Z,6.60
2019-05-01T01:18:09.285Z,6.60
2019-05-01T01:20:38.831Z,6.60
2019-05-01T01:23:08.495Z,6.60
2019-05-01T01:25:37.999Z,6.60
2019-05-01T01:28:07.520Z,6.50
2019-05-01T01:30:37.129Z,6.50
2019-05-01T01:33:06.678Z,6.50
2019-05-01T01:35:36.204Z,6.50
2019-05-01T01:38:05.764Z,6.40
2019-05-01T01:40:36.048Z,6.40
2019-05-01T01:43:23.270Z,6.30
2019-05-01T01:45:54.030Z,6.30
2019-05-01T01:48:23.741Z,6.30
2019-05-01T01:50:53.320Z,6.20
2019-05-01T01:53:23.557Z,6.20
2019-05-01T01:55:54.193Z,6.20
2019-05-01T01:58:25.028Z,6.20
2019-05-01T02:01:10.740Z,6.20
2019-05-01T02:03:42.808Z,6.20
2019-05-01T02:06:12.475Z,6.20
2019-05-01T02:08:42.095Z,6.20
2019-05-01T02:11:11.660Z,6.20
2019-05-01T02:13:41.211Z,6.20
2019-05-01T02:16:10.717Z,6.10
2019-05-01T02:18:40.268Z,6.10
2019-05-01T02:21:09.756Z,6.10
2019-05-01T02:23:39.313Z,6.10
2019-05-01T02:26:10.478Z,6.10
2019-05-01T02:28:45.850Z,6.10
2019-05-01T02:31:28.159Z,6.00
2019-05-01T02:33:57.854Z,6.00
2019-05-01T02:36:28.800Z,5.90
2019-05-01T02:38:59.926Z,5.90
2019-05-01T02:41:36.493Z,5.80
2019-05-01T02:44:39.380Z,5.70
2019-05-01T02:47:11.871Z,5.60
2019-05-01T02:49:52.185Z,5.60
2019-05-01T02:52:25.503Z,5.50
2019-05-01T02:54:58.021Z,5.40
2019-05-01T02:57:28.148Z,5.40
2019-05-01T02:59:58.420Z,5.40
2019-05-01T03:02:28.863Z,5.40
2019-05-01T03:04:59.267Z,5.40
2019-05-01T03:07:32.357Z,5.40
2019-05-01T03:10:03.696Z,5.30
2019-05-01T03:12:34.526Z,5.30
2019-05-01T03:15:06.391Z,5.20
2019-05-01T03:17:53.439Z,5.10
2019-05-01T03:20:39.083Z,5.10
2019-05-01T03:23:31.469Z,5.10
2019-05-01T03:26:01.719Z,5.00
2019-05-01T03:28:31.903Z,5.10
2019-05-01T03:31:01.755Z,5.10
2019-05-01T03:33:31.344Z,5.00
2019-05-01T03:36:00.876Z,5.00
2019-05-01T03:38:30.912Z,5.00
2019-05-01T03:41:01.338Z,5.00
2019-05-01T03:43:31.768Z,5.00
2019-05-01T03:46:01.310Z,5.00
2019-05-01T03:48:31.216Z,4.90
2019-05-01T03:51:00.854Z,5.00
2019-05-01T03:53:30.867Z,5.00
2019-05-01T03:56:00.616Z,5.00
2019-05-01T03:58:30.553Z,5.10
2019-05-01T04:01:22.121Z,5.10
2019-05-01T04:03:54.579Z,5.20
2019-05-01T04:06:24.515Z,5.20
2019-05-01T04:08:54.083Z,5.10
2019-05-01T04:11:23.851Z,5.10
2019-05-01T04:13:53.489Z,5.10
2019-05-01T04:16:23.409Z,5.10
2019-05-01T04:18:53.443Z,5.10
2019-05-01T04:21:25.732Z,5.10
2019-05-01T04:23:55.558Z,5.00
2019-05-01T04:26:25.211Z,5.00
2019-05-01T04:29:22.778Z,5.00
2019-05-01T04:32:11.683Z,5.10
2019-05-01T04:35:03.307Z,5.20
2019-05-01T04:37:33.051Z,5.30
2019-05-01T04:40:02.523Z,5.50
2019-05-01T04:42:32.287Z,5.50
2019-05-01T04:45:01.943Z,5.70
2019-05-01T04:47:31.691Z,5.90
2019-05-01T04:50:01.686Z,6.10
2019-05-01T04:52:31.323Z,6.30
2019-05-01T04:55:01.132Z,6.40
2019-05-01T04:57:31.182Z,6.70
2019-05-01T05:00:00.986Z,6.90
2019-05-01T05:02:47.281Z,7.10
2019-05-01T05:05:16.930Z,7.40
2019-05-01T05:07:47.018Z,7.50
2019-05-01T05:10:17.032Z,7.70
2019-05-01T05:13:11.362Z,7.90
2019-05-01T05:16:07.134Z,8.10
2019-05-01T05:18:36.788Z,8.30
2019-05-01T05:21:06.558Z,8.50
2019-05-01T05:23:36.302Z,8.70
2019-05-01T05:26:05.862Z,9.00
2019-05-01T05:28:36.293Z,9.10
2019-05-01T05:31:06.554Z,9.30
2019-05-01T05:33:38.190Z,9.40
2019-05-01T05:36:09.196Z,9.50
2019-05-01T05:39:08.044Z,9.50
2019-05-01T05:41:38.998Z,9.50
2019-05-01T05:44:08.776Z,9.40
2019-05-01T05:46:38.437Z,9.40
2019-05-01T05:49:08.172Z,9.50
2019-05-01T05:51:53.703Z,9.50
2019-05-01T05:54:42.834Z,9.80
2019-05-01T05:57:30.051Z,10.90
2019-05-01T06:00:09.830Z,11.70
2019-05-01T06:02:57.031Z,11.90
2019-05-01T06:05:41.234Z,12.20
2019-05-01T06:08:15.603Z,12.50
2019-05-01T06:11:07.406Z,12.80
2019-05-01T06:13:57.100Z,13.10
2019-05-01T06:16:52.179Z,13.30
2019-05-01T06:19:33.235Z,13.50
2019-05-01T06:22:24.506Z,13.60
2019-05-01T06:25:00.224Z,13.80
2019-05-01T06:27:30.864Z,13.90
2019-05-01T06:30:00.905Z,14.10
2019-05-01T06:32:33.454Z,14.40
2019-05-01T06:35:02.978Z,14.40
2019-05-01T06:37:55.917Z,14.70
2019-05-01T06:40:38.387Z,14.80
2019-05-01T06:43:12.366Z,15.10
2019-05-01T06:45:46.835Z,15.40
2019-05-01T06:48:18.905Z,15.70
2019-05-01T06:50:54.959Z,15.50
2019-05-01T06:53:25.206Z,15.70
2019-05-01T06:55:54.923Z,16.00
2019-05-01T06:58:25.145Z,16.40
2019-05-01T07:00:54.813Z,16.50
2019-05-01T07:03:24.442Z,16.50
2019-05-01T07:05:56.221Z,16.70
2019-05-01T07:08:29.554Z,17.00
2019-05-01T07:10:57.615Z,17.30
2019-05-01T07:13:27.171Z,17.40
2019-05-01T07:15:58.709Z,17.50
2019-05-01T07:18:29.224Z,17.70
2019-05-01T07:20:58.831Z,17.70
2019-05-01T07:23:28.491Z,17.90
2019-05-01T07:25:58.159Z,18.00
2019-05-01T07:28:34.362Z,18.00
2019-05-01T07:31:10.669Z,18.00
2019-05-01T07:33:40.285Z,18.20
2019-05-01T07:36:15.235Z,18.30
2019-05-01T07:38:43.293Z,18.50
2019-05-01T07:41:12.956Z,18.60
2019-05-01T07:44:09.636Z,18.90
2019-05-01T07:47:01.571Z,19.00
2019-05-01T07:49:54.626Z,19.30
2019-05-01T07:52:25.124Z,19.70
2019-05-01T07:54:56.054Z,19.90
2019-05-01T07:57:25.901Z,19.90
2019-05-01T07:59:58.191Z,19.90
2019-05-01T08:02:31.029Z,20.00
2019-05-01T08:04:58.086Z,20.10
2019-05-01T08:07:31.960Z,20.30
2019-05-01T08:09:58.823Z,20.30
2019-05-01T08:12:28.383Z,20.50
2019-05-01T08:14:57.969Z,20.70
2019-05-01T08:17:29.331Z,20.80
2019-05-01T08:20:09.830Z,21.00
2019-05-01T08:22:42.999Z,21.10
2019-05-01T08:25:12.560Z,21.30
2019-05-01T08:27:50.915Z,21.30
2019-05-01T08:30:33.238Z,21.50
2019-05-01T08:33:27.299Z,21.50
2019-05-01T08:35:56.951Z,21.60
2019-05-01T08:38:29.814Z,21.90
2019-05-01T08:40:57.685Z,22.00
2019-05-01T08:43:27.254Z,21.90
2019-05-01T08:46:24.977Z,21.80
2019-05-01T08:49:13.748Z,21.90
2019-05-01T08:51:43.350Z,21.90
2019-05-01T08:54:13.018Z,22.40
2019-05-01T08:56:43.752Z,22.40
2019-05-01T08:59:13.408Z,22.60
2019-05-01T09:01:45.818Z,22.60
2019-05-01T09:04:14.135Z,22.70
2019-05-01T09:06:45.108Z,22.70
2019-05-01T09:09:14.772Z,22.80
2019-05-01T09:11:44.313Z,22.70
2019-05-01T09:14:13.899Z,23.00
2019-05-01T09:16:43.434Z,23.20
2019-05-01T09:19:13.008Z,23.00
2019-05-01T09:21:42.559Z,23.00
2019-05-01T09:24:12.121Z,22.80
2019-05-01T09:26:53.114Z,22.60
2019-05-01T09:29:27.978Z,22.90
2019-05-01T09:31:57.664Z,23.20
2019-05-01T09:34:27.274Z,23.10
2019-05-01T09:36:56.834Z,22.90
2019-05-01T09:39:27.716Z,22.90
2019-05-01T09:41:57.263Z,22.70
2019-05-01T09:44:26.830Z,22.40
2019-05-01T09:46:56.385Z,22.40
2019-05-01T09:49:26.018Z,22.90
2019-05-01T09:52:02.941Z,23.40
2019-05-01T09:54:42.947Z,23.80
2019-05-01T09:57:10.069Z,23.80
2019-05-01T09:59:39.620Z,24.00
2019-05-01T10:02:09.251Z,23.50
2019-05-01T10:04:38.780Z,23.90
2019-05-01T10:07:09.055Z,23.80
2019-05-01T10:09:38.642Z,23.30
2019-05-01T10:12:11.715Z,23.00
2019-05-01T10:14:39.492Z,22.30
2019-05-01T10:17:09.052Z,21.70
2019-05-01T10:19:38.627Z,22.00
2019-05-01T10:22:08.188Z,22.70
2019-05-01T10:24:39.360Z,22.80
2019-05-01T10:27:11.424Z,23.20
2019-05-01T10:30:11.860Z,23.50
2019-05-01T10:32:57.784Z,22.70
2019-05-01T10:35:42.805Z,22.90
2019-05-01T10:38:10.792Z,22.50
2019-05-01T10:40:40.473Z,22.60
2019-05-01T10:43:09.981Z,23.30
2019-05-01T10:45:39.553Z,22.80
2019-05-01T10:48:13.932Z,22.20
2019-05-01T10:50:43.755Z,22.50
2019-05-01T10:53:13.459Z,23.00
2019-05-01T10:55:43.007Z,23.00
2019-05-01T10:58:17.282Z,23.10
2019-05-01T11:00:45.434Z,23.50
2019-05-01T11:03:15.023Z,22.80
2019-05-01T11:05:55.231Z,22.50
2019-05-01T11:08:15.861Z,22.50
2019-05-01T11:10:45.389Z,23.20
2019-05-01T11:13:14.977Z,23.40
2019-05-01T11:15:44.513Z,23.70
2019-05-01T11:18:14.089Z,24.10
2019-05-01T11:20:43.637Z,24.30
2019-05-01T11:23:13.200Z,24.80
2019-05-01T11:25:45.770Z,25.00
2019-05-01T11:28:15.372Z,24.30
2019-05-01T11:30:45.417Z,24.30
2019-05-01T11:33:23.793Z,24.60
2019-05-01T11:36:21.096Z,25.00
2019-05-01T11:38:55.496Z,25.10
2019-05-01T11:41:32.002Z,24.20
2019-05-01T11:44:01.543Z,23.80
2019-05-01T11:46:31.116Z,23.00
2019-05-01T11:49:00.692Z,22.50
2019-05-01T11:51:34.825Z,22.20
2019-05-01T11:54:04.559Z,21.60
2019-05-01T11:56:34.149Z,20.90
2019-05-01T11:59:04.076Z,20.60
2019-05-01T12:01:36.718Z,20.30
2019-05-01T12:04:12.852Z,20.00
2019-05-01T12:06:42.393Z,19.60
2019-05-01T12:09:12.204Z,19.60
2019-05-01T12:11:43.294Z,19.80
2019-05-01T12:14:12.819Z,20.40
2019-05-01T12:17:16.430Z,21.10
2019-05-01T12:19:45.970Z,21.50
2019-05-01T12:22:15.579Z,21.80
2019-05-01T12:24:45.165Z,21.40
2019-05-01T12:27:14.685Z,21.00
2019-05-01T12:29:44.224Z,20.40
2019-05-01T12:32:13.800Z,20.50
2019-05-01T12:34:43.312Z,20.70
2019-05-01T12:37:36.197Z,20.70
2019-05-01T12:40:13.268Z,20.80
2019-05-01T12:42:42.968Z,21.10
2019-05-01T12:45:12.992Z,21.20
2019-05-01T12:47:54.280Z,21.20
2019-05-01T12:50:23.947Z,20.90
2019-05-01T12:53:07.812Z,20.90
2019-05-01T12:56:05.368Z,20.90
2019-05-01T12:58:36.404Z,21.00
2019-05-01T13:01:06.067Z,21.40
2019-05-01T13:03:35.643Z,21.50
2019-05-01T13:06:07.093Z,21.20
2019-05-01T13:08:37.161Z,21.30
2019-05-01T13:11:09.666Z,21.30
2019-05-01T13:13:39.247Z,21.10
2019-05-01T13:16:10.624Z,20.80
2019-05-01T13:18:40.195Z,20.60
2019-05-01T13:21:09.764Z,20.50
2019-05-01T13:23:39.307Z,20.30
2019-05-01T13:26:22.970Z,20.20
2019-05-01T13:29:05.524Z,20.00
2019-05-01T13:32:00.039Z,19.90
2019-05-01T13:34:29.599Z,20.40
2019-05-01T13:37:03.207Z,20.90
2019-05-01T13:39:30.537Z,21.00
2019-05-01T13:42:00.078Z,21.20
2019-05-01T13:44:29.655Z,21.20
2019-05-01T13:46:59.209Z,21.30
2019-05-01T13:49:28.782Z,21.40
2019-05-01T13:51:58.327Z,21.20
2019-05-01T13:54:27.983Z,21.10
2019-05-01T13:56:57.565Z,21.00
2019-05-01T13:59:27.185Z,20.90
2019-05-01T14:01:56.821Z,20.70
2019-05-01T14:04:27.000Z,20.60
2019-05-01T14:06:56.533Z,20.60
2019-05-01T14:09:30.938Z,20.70
2019-05-01T14:12:00.500Z,20.80
2019-05-01T14:14:30.064Z,20.80
2019-05-01T14:16:59.631Z,20.90
2019-05-01T14:19:36.643Z,21.00
2019-05-01T14:22:31.779Z,20.90
2019-05-01T14:25:02.379Z,20.90
2019-05-01T14:27:31.982Z,20.80
2019-05-01T14:30:01.561Z,20.80
2019-05-01T14:32:31.109Z,20.60
2019-05-01T14:35:00.693Z,20.60
2019-05-01T14:37:30.271Z,20.50
2019-05-01T14:39:59.844Z,20.20
2019-05-01T14:42:29.404Z,20.10
2019-05-01T14:44:58.955Z,20.00
2019-05-01T14:47:28.583Z,19.80
2019-05-01T14:49:58.116Z,19.70
2019-05-01T14:52:27.689Z,19.80
2019-05-01T14:54:57.265Z,19.80
2019-05-01T14:57:26.849Z,19.70
2019-05-01T14:59:56.419Z,19.70
2019-05-01T15:02:25.935Z,19.60
2019-05-01T15:04:55.527Z,19.50
2019-05-01T15:07:25.083Z,19.50
2019-05-01T15:09:54.671Z,19.60
2019-05-01T15:12:24.249Z,19.70
2019-05-01T15:15:03.415Z,19.70
2019-05-01T15:17:38.454Z,19.80
2019-05-01T15:20:11.886Z,19.90
2019-05-01T15:22:41.456Z,20.00
2019-05-01T15:25:11.037Z,20.10
2019-05-01T15:27:40.672Z,20.00
2019-05-01T15:30:12.741Z,19.90
2019-05-01T15:32:42.233Z,20.00
2019-05-01T15:35:11.944Z,20.10
2019-05-01T15:37:41.593Z,20.00
2019-05-01T15:40:19.062Z,19.80
2019-05-01T15:42:56.339Z,19.80
2019-05-01T15:45:25.950Z,19.70
2019-05-01T15:47:55.524Z,19.80
2019-05-01T15:50:25.107Z,19.70
2019-05-01T15:52:54.700Z,19.70
2019-05-01T15:55:24.261Z,19.60
2019-05-01T15:57:53.840Z,19.50
2019-05-01T16:00:23.404Z,19.40
2019-05-01T16:02:52.996Z,19.20
2019-05-01T16:05:28.109Z,19.20
2019-05-01T16:08:09.156Z,19.20
2019-05-01T16:10:33.508Z,19.10
2019-05-01T16:13:21.816Z,19.00
2019-05-01T16:15:54.489Z,18.80
2019-05-01T16:18:24.076Z,18.60
2019-05-01T16:21:02.594Z,18.60
2019-05-01T16:23:33.360Z,18.50
2019-05-01T16:26:02.928Z,18.40
2019-05-01T16:28:32.500Z,18.50
2019-05-01T16:31:02.116Z,18.40
2019-05-01T16:33:31.673Z,18.30
2019-05-01T16:36:01.234Z,18.20
2019-05-01T16:38:41.164Z,18.20
2019-05-01T16:41:13.863Z,18.20
2019-05-01T16:43:44.399Z,18.10
2019-05-01T16:46:13.987Z,18.00
2019-05-01T16:48:43.538Z,17.90
2019-05-01T16:51:13.106Z,17.80
2019-05-01T16:53:42.745Z,17.70
2019-05-01T16:56:12.463Z,17.60
2019-05-01T16:58:42.114Z,17.60
2019-05-01T17:01:29.395Z,17.50
2019-05-01T17:04:12.867Z,17.40
2019-05-01T17:07:01.474Z,17.30
2019-05-01T17:09:48.608Z,17.20
2019-05-01T17:12:20.583Z,17.10
2019-05-01T17:14:50.157Z,17.10
2019-05-01T17:17:22.113Z,17.10
2019-05-01T17:19:51.680Z,16.90
2019-05-01T17:22:21.217Z,16.90
2019-05-01T17:24:50.757Z,16.80
2019-05-01T17:27:20.321Z,16.80
2019-05-01T17:29:49.857Z,16.60
2019-05-01T17:32:19.448Z,16.50
2019-05-01T17:34:49.015Z,16.50
2019-05-01T17:37:18.592Z,16.40
2019-05-01T17:39:48.140Z,16.40
2019-05-01T17:42:17.741Z,16.30
2019-05-01T17:44:47.301Z,16.30
2019-05-01T17:47:17.841Z,16.20
2019-05-01T17:49:48.079Z,16.20
2019-05-01T17:52:17.633Z,16.20
2019-05-01T17:54:47.181Z,16.10
2019-05-01T17:57:16.775Z,16.00
2019-05-01T17:59:47.899Z,15.90
2019-05-01T18:02:33.647Z,15.90
2019-05-01T18:05:30.891Z,15.80
2019-05-01T18:08:00.473Z,15.60
2019-05-01T18:10:34.064Z,15.50
2019-05-01T18:13:01.283Z,15.50
2019-05-01T18:15:30.865Z,15.30
2019-05-01T18:18:00.427Z,15.10
2019-05-01T18:20:30.001Z,15.00
2019-05-01T18:23:08.455Z,14.90
2019-05-01T18:25:47.929Z,14.80
2019-05-01T18:28:35.010Z,14.60
2019-05-01T18:31:06.564Z,14.60
2019-05-01T18:33:36.129Z,14.40
2019-05-01T18:36:06.569Z,14.20
2019-05-01T18:38:55.068Z,13.90
2019-05-01T18:41:29.320Z,13.60
2019-05-01T18:43:58.850Z,13.50
2019-05-01T18:46:28.630Z,13.50
2019-05-01T18:48:58.201Z,13.50
2019-05-01T18:51:27.830Z,13.30
2019-05-01T18:53:58.018Z,13.20
2019-05-01T18:56:28.531Z,13.00
2019-05-01T18:58:58.256Z,12.90
2019-05-01T19:01:27.879Z,12.60
2019-05-01T19:03:57.568Z,12.40
2019-05-01T19:06:40.385Z,12.40
2019-05-01T19:08:58.442Z,12.30
2019-05-01T19:11:28.121Z,12.20
2019-05-01T19:13:57.734Z,12.00
2019-05-01T19:16:27.478Z,12.00
2019-05-01T19:18:57.188Z,11.90
2019-05-01T19:21:29.105Z,11.70
2019-05-01T19:24:00.727Z,11.60
2019-05-01T19:26:30.108Z,11.40
2019-05-01T19:28:59.817Z,11.40
2019-05-01T19:31:29.499Z,11.40
2019-05-01T19:34:01.965Z,11.30
2019-05-01T19:36:31.689Z,11.30
2019-05-01T19:39:01.440Z,11.30
2019-05-01T19:41:34.561Z,11.30
2019-05-01T19:44:04.237Z,11.30
2019-05-01T19:46:33.876Z,11.20
2019-05-01T19:49:03.597Z,11.20
2019-05-01T19:51:33.239Z,11.10
2019-05-01T19:54:03.307Z,10.90
2019-05-01T19:56:36.894Z,10.80
2019-05-01T19:59:06.487Z,10.70
2019-05-01T20:01:38.444Z,10.50
2019-05-01T20:04:08.325Z,10.40
2019-05-01T20:06:40.230Z,10.30
2019-05-01T20:09:10.076Z,10.20
2019-05-01T20:11:39.652Z,10.10
2019-05-01T20:14:09.269Z,10.10
2019-05-01T20:16:38.892Z,10.00
2019-05-01T20:19:08.461Z,10.00
2019-05-01T20:21:38.105Z,10.00
2019-05-01T20:24:09.354Z,10.00
2019-05-01T20:26:38.942Z,10.10
2019-05-01T20:29:08.495Z,10.10
2019-05-01T20:31:38.064Z,10.10
2019-05-01T20:34:11.880Z,10.00
2019-05-01T20:36:38.857Z,9.90
2019-05-01T20:39:09.339Z,9.70
2019-05-01T20:41:38.878Z,9.50
2019-05-01T20:44:08.513Z,9.40
2019-05-01T20:46:38.068Z,9.30
2019-05-01T20:49:07.596Z,9.40
2019-05-01T20:51:37.157Z,9.40
2019-05-01T20:54:06.714Z,9.30
2019-05-01T20:56:47.761Z,9.10
2019-05-01T20:59:17.298Z,9.20
2019-05-01T21:01:46.917Z,9.10
2019-05-01T21:04:47.573Z,9.10
2019-05-01T21:07:21.333Z,9.10
2019-05-01T21:09:56.823Z,9.10
2019-05-01T21:12:22.114Z,9.10
2019-05-01T21:14:51.659Z,9.10
2019-05-01T21:17:21.189Z,9.10
2019-05-01T21:19:50.714Z,9.10
2019-05-01T21:22:20.262Z,9.10
2019-05-01T21:24:49.823Z,9.00
2019-05-01T21:27:19.373Z,9.00
2019-05-01T21:29:48.895Z,9.00
2019-05-01T21:32:23.634Z,9.00
2019-05-01T21:34:49.623Z,8.90
2019-05-01T21:37:19.147Z,8.70
2019-05-01T21:39:48.723Z,8.60
2019-05-01T21:42:18.245Z,8.50
2019-05-01T21:44:47.791Z,8.50
2019-05-01T21:47:17.330Z,8.50
2019-05-01T21:49:46.939Z,8.50
2019-05-01T21:52:17.873Z,8.30
2019-05-01T21:54:50.274Z,8.00
2019-05-01T21:57:19.256Z,7.90
2019-05-01T21:59:48.794Z,7.90
2019-05-01T22:02:18.441Z,7.90
2019-05-01T22:04:48.030Z,8.00
2019-05-01T22:07:17.643Z,8.00
2019-05-01T22:09:50.456Z,8.00
2019-05-01T22:12:18.563Z,8.00
2019-05-01T22:14:52.615Z,7.90
2019-05-01T22:17:32.065Z,7.80
2019-05-01T22:19:59.962Z,7.80
2019-05-01T22:22:52.272Z,7.80
2019-05-01T22:25:43.860Z,7.70
2019-05-01T22:28:21.461Z,7.70
2019-05-01T22:30:56.071Z,7.70
2019-05-01T22:33:25.724Z,7.70
2019-05-01T22:35:55.272Z,7.70
2019-05-01T22:38:24.883Z,7.70
2019-05-01T22:41:13.314Z,7.70
2019-05-01T22:43:42.861Z,7.70
2019-05-01T22:46:33.861Z,7.70
2019-05-01T22:49:02.665Z,7.70
2019-05-01T22:51:32.221Z,7.70
2019-05-01T22:54:01.769Z,7.60
2019-05-01T22:56:31.268Z,7.70
2019-05-01T22:59:00.830Z,7.60
2019-05-01T23:01:30.456Z,7.60
2019-05-01T23:04:02.515Z,7.50
2019-05-01T23:06:32.147Z,7.40
2019-05-01T23:09:01.687Z,7.40
2019-05-01T23:11:33.551Z,7.40
2019-05-01T23:14:03.136Z,7.30
2019-05-01T23:16:38.420Z,7.20
2019-05-01T23:19:07.978Z,7.30
2019-05-01T23:21:37.628Z,7.20
2019-05-01T23:24:07.700Z,7.20
2019-05-01T23:26:37.249Z,7.10
2019-05-01T23:29:06.768Z,7.20
2019-05-01T23:31:36.328Z,7.20
2019-05-01T23:34:05.856Z,7.20
2019-05-01T23:36:35.408Z,7.20
2019-05-01T23:39:06.424Z,7.20
2019-05-01T23:41:45.588Z,7.20
2019-05-01T23:44:07.154Z,7.20
2019-05-01T23:46:36.684Z,7.30
2019-05-01T23:49:06.238Z,7.30
2019-05-01T23:51:35.810Z,7.40
2019-05-01T23:54:05.330Z,7.40
2019-05-01T23:56:35.275Z,7.40
2019-05-01T23:59:06.060Z,7.30
